Bunker, Washington
Current Conditions -  °F | °C
As of 6:15 AM on Sunday 25 Jan 2015 (Local Time) from KCLS Reporting Station
Moderate Fog Moderate Fog  
Wind Chill:   Ceiling: 400
Heat Index:   Visibility: 0mi
Dew Point:   Wind: 5mph
Humidity: 100%   Direction: 180°S
Pressure: 30.2"   Gusts: NA
Location:  46.6561°N, 122.993°W
Report Text: KCLS 251415Z AUTO 18004KT M1/4SM FG OVC004 09/09 A3020 RMK AO2
Loading
Personal Weather Stations






























Interactive Weather Map New forecast layout! Learn more

10-Day Weather Forecast

Advertisements
Track Severe Weather on mobile